sensor_id;sensor_type;location;lat;lon;timestamp;P1;durP1;ratioP1;P2;durP2;ratioP2
12798;SDS011;19250;42.646;26.980;2023-04-24T00:01:27;14.23;;;12.40;;
12798;SDS011;19250;42.646;26.980;2023-04-24T00:03:55;16.37;;;12.10;;
12798;SDS011;19250;42.646;26.980;2023-04-24T00:06:24;17.15;;;11.82;;
12798;SDS011;19250;42.646;26.980;2023-04-24T00:08:58;13.35;;;11.13;;
12798;SDS011;19250;42.646;26.980;2023-04-24T00:11:28;15.48;;;10.45;;
12798;SDS011;19250;42.646;26.980;2023-04-24T00:13:55;15.57;;;10.77;;
12798;SDS011;19250;42.646;26.980;2023-04-24T00:16:23;15.23;;;10.95;;
12798;SDS011;19250;42.646;26.980;2023-04-24T00:18:50;12.67;;;10.97;;
12798;SDS011;19250;42.646;26.980;2023-04-24T00:21:18;14.50;;;11.27;;
12798;SDS011;19250;42.646;26.980;2023-04-24T00:23:45;13.60;;;10.60;;
12798;SDS011;19250;42.646;26.980;2023-04-24T00:26:12;13.82;;;10.70;;
12798;SDS011;19250;42.646;26.980;2023-04-24T00:28:41;15.50;;;11.73;;
12798;SDS011;19250;42.646;26.980;2023-04-24T00:31:09;18.37;;;12.70;;
12798;SDS011;19250;42.646;26.980;2023-04-24T00:33:36;17.67;;;12.30;;
12798;SDS011;19250;42.646;26.980;2023-04-24T00:36:03;14.57;;;11.48;;
12798;SDS011;19250;42.646;26.980;2023-04-24T00:38:31;13.32;;;10.65;;
12798;SDS011;19250;42.646;26.980;2023-04-24T00:40:58;12.48;;;10.38;;
12798;SDS011;19250;42.646;26.980;2023-04-24T00:43:26;13.40;;;10.30;;
12798;SDS011;19250;42.646;26.980;2023-04-24T00:45:55;14.95;;;10.55;;
12798;SDS011;19250;42.646;26.980;2023-04-24T00:48:24;14.48;;;10.63;;
12798;SDS011;19250;42.646;26.980;2023-04-24T00:50:52;14.80;;;11.23;;
12798;SDS011;19250;42.646;26.980;2023-04-24T00:53:20;13.10;;;10.77;;
12798;SDS011;19250;42.646;26.980;2023-04-24T00:55:48;16.17;;;11.88;;
12798;SDS011;19250;42.646;26.980;2023-04-24T00:58:15;13.38;;;10.50;;
12798;SDS011;19250;42.646;26.980;2023-04-24T01:00:42;13.03;;;10.83;;
12798;SDS011;19250;42.646;26.980;2023-04-24T01:03:13;16.35;;;10.90;;
12798;SDS011;19250;42.646;26.980;2023-04-24T01:05:41;11.30;;;10.10;;
12798;SDS011;19250;42.646;26.980;2023-04-24T01:08:09;14.88;;;11.23;;
12798;SDS011;19250;42.646;26.980;2023-04-24T01:10:36;17.08;;;11.25;;
12798;SDS011;19250;42.646;26.980;2023-04-24T01:13:07;16.50;;;12.30;;
12798;SDS011;19250;42.646;26.980;2023-04-24T01:15:35;19.85;;;12.73;;
12798;SDS011;19250;42.646;26.980;2023-04-24T01:18:02;16.88;;;11.52;;
12798;SDS011;19250;42.646;26.980;2023-04-24T01:20:31;20.52;;;12.40;;
12798;SDS011;19250;42.646;26.980;2023-04-24T01:23:01;17.17;;;12.75;;
12798;SDS011;19250;42.646;26.980;2023-04-24T01:25:29;15.45;;;12.88;;
12798;SDS011;19250;42.646;26.980;2023-04-24T01:27:57;15.68;;;12.50;;
12798;SDS011;19250;42.646;26.980;2023-04-24T01:30:24;15.52;;;12.30;;
12798;SDS011;19250;42.646;26.980;2023-04-24T01:32:52;16.17;;;12.63;;
12798;SDS011;19250;42.646;26.980;2023-04-24T01:35:19;16.63;;;11.82;;
12798;SDS011;19250;42.646;26.980;2023-04-24T01:37:47;13.52;;;11.82;;
12798;SDS011;19250;42.646;26.980;2023-04-24T01:40:15;17.77;;;11.65;;
12798;SDS011;19250;42.646;26.980;2023-04-24T01:42:43;13.80;;;11.80;;
12798;SDS011;19250;42.646;26.980;2023-04-24T01:45:12;15.23;;;12.80;;
12798;SDS011;19250;42.646;26.980;2023-04-24T01:47:39;16.33;;;12.43;;
12798;SDS011;19250;42.646;26.980;2023-04-24T01:50:08;16.57;;;12.30;;
12798;SDS011;19250;42.646;26.980;2023-04-24T01:52:36;17.17;;;13.23;;
12798;SDS011;19250;42.646;26.980;2023-04-24T01:55:04;14.63;;;13.13;;
12798;SDS011;19250;42.646;26.980;2023-04-24T01:57:33;15.43;;;12.60;;
12798;SDS011;19250;42.646;26.980;2023-04-24T02:00:02;20.13;;;14.10;;
12798;SDS011;19250;42.646;26.980;2023-04-24T02:02:31;17.08;;;13.95;;
12798;SDS011;19250;42.646;26.980;2023-04-24T02:04:58;22.98;;;15.35;;
12798;SDS011;19250;42.646;26.980;2023-04-24T02:07:26;17.23;;;12.83;;
12798;SDS011;19250;42.646;26.980;2023-04-24T02:09:54;17.55;;;11.90;;
12798;SDS011;19250;42.646;26.980;2023-04-24T02:12:21;15.63;;;11.15;;
12798;SDS011;19250;42.646;26.980;2023-04-24T02:14:50;16.48;;;11.35;;
12798;SDS011;19250;42.646;26.980;2023-04-24T02:17:17;14.25;;;11.20;;
12798;SDS011;19250;42.646;26.980;2023-04-24T02:19:44;16.15;;;11.30;;
12798;SDS011;19250;42.646;26.980;2023-04-24T02:22:12;12.95;;;11.18;;
12798;SDS011;19250;42.646;26.980;2023-04-24T02:24:39;18.73;;;12.52;;
12798;SDS011;19250;42.646;26.980;2023-04-24T02:27:07;18.40;;;13.95;;
12798;SDS011;19250;42.646;26.980;2023-04-24T02:29:34;17.63;;;11.97;;
12798;SDS011;19250;42.646;26.980;2023-04-24T02:32:03;15.40;;;12.93;;
12798;SDS011;19250;42.646;26.980;2023-04-24T02:34:30;15.82;;;12.95;;
12798;SDS011;19250;42.646;26.980;2023-04-24T02:36:57;17.08;;;12.85;;
12798;SDS011;19250;42.646;26.980;2023-04-24T02:39:25;17.20;;;13.00;;
12798;SDS011;19250;42.646;26.980;2023-04-24T02:41:52;14.82;;;12.43;;
12798;SDS011;19250;42.646;26.980;2023-04-24T02:44:19;15.80;;;11.82;;
12798;SDS011;19250;42.646;26.980;2023-04-24T02:46:47;17.30;;;13.25;;
12798;SDS011;19250;42.646;26.980;2023-04-24T02:49:15;16.13;;;13.50;;
12798;SDS011;19250;42.646;26.980;2023-04-24T02:51:43;17.35;;;14.07;;
12798;SDS011;19250;42.646;26.980;2023-04-24T02:54:10;15.85;;;12.70;;
12798;SDS011;19250;42.646;26.980;2023-04-24T02:56:37;19.85;;;13.15;;
12798;SDS011;19250;42.646;26.980;2023-04-24T02:59:04;14.90;;;12.95;;
12798;SDS011;19250;42.646;26.980;2023-04-24T03:01:32;20.17;;;13.55;;
12798;SDS011;19250;42.646;26.980;2023-04-24T03:03:59;18.90;;;13.02;;
12798;SDS011;19250;42.646;26.980;2023-04-24T03:06:28;19.83;;;14.73;;
12798;SDS011;19250;42.646;26.980;2023-04-24T03:08:56;14.93;;;12.90;;
12798;SDS011;19250;42.646;26.980;2023-04-24T03:11:23;14.55;;;13.02;;
12798;SDS011;19250;42.646;26.980;2023-04-24T03:13:51;18.40;;;13.00;;
12798;SDS011;19250;42.646;26.980;2023-04-24T03:16:18;16.58;;;13.55;;
12798;SDS011;19250;42.646;26.980;2023-04-24T03:18:45;18.30;;;14.97;;
12798;SDS011;19250;42.646;26.980;2023-04-24T03:21:13;16.85;;;15.05;;
12798;SDS011;19250;42.646;26.980;2023-04-24T03:23:41;18.30;;;15.00;;
12798;SDS011;19250;42.646;26.980;2023-04-24T03:26:09;17.05;;;15.25;;
12798;SDS011;19250;42.646;26.980;2023-04-24T03:28:37;20.05;;;16.08;;
12798;SDS011;19250;42.646;26.980;2023-04-24T03:31:04;18.85;;;14.25;;
12798;SDS011;19250;42.646;26.980;2023-04-24T03:33:31;16.70;;;13.10;;
12798;SDS011;19250;42.646;26.980;2023-04-24T03:35:59;16.83;;;13.20;;
12798;SDS011;19250;42.646;26.980;2023-04-24T03:38:26;19.60;;;13.88;;
12798;SDS011;19250;42.646;26.980;2023-04-24T03:40:55;16.30;;;13.63;;
12798;SDS011;19250;42.646;26.980;2023-04-24T03:43:22;23.75;;;16.88;;
12798;SDS011;19250;42.646;26.980;2023-04-24T03:45:49;19.42;;;16.42;;
12798;SDS011;19250;42.646;26.980;2023-04-24T03:48:17;27.75;;;21.23;;
12798;SDS011;19250;42.646;26.980;2023-04-24T03:50:44;30.73;;;25.88;;
12798;SDS011;19250;42.646;26.980;2023-04-24T03:53:11;33.72;;;23.48;;
12798;SDS011;19250;42.646;26.980;2023-04-24T03:55:39;31.85;;;24.75;;
12798;SDS011;19250;42.646;26.980;2023-04-24T03:58:07;28.17;;;24.40;;
12798;SDS011;19250;42.646;26.980;2023-04-24T04:00:35;29.00;;;21.90;;
12798;SDS011;19250;42.646;26.980;2023-04-24T04:03:02;29.75;;;21.15;;
12798;SDS011;19250;42.646;26.980;2023-04-24T04:05:30;26.17;;;17.95;;
12798;SDS011;19250;42.646;26.980;2023-04-24T04:07:58;19.02;;;14.25;;
12798;SDS011;19250;42.646;26.980;2023-04-24T04:10:26;19.45;;;15.13;;
12798;SDS011;19250;42.646;26.980;2023-04-24T04:12:53;22.02;;;16.27;;
12798;SDS011;19250;42.646;26.980;2023-04-24T04:15:23;26.07;;;17.80;;
12798;SDS011;19250;42.646;26.980;2023-04-24T04:17:52;20.65;;;16.02;;
12798;SDS011;19250;42.646;26.980;2023-04-24T04:20:19;15.50;;;12.93;;
12798;SDS011;19250;42.646;26.980;2023-04-24T04:22:46;17.35;;;13.02;;
12798;SDS011;19250;42.646;26.980;2023-04-24T04:25:14;22.02;;;14.48;;
12798;SDS011;19250;42.646;26.980;2023-04-24T04:27:41;20.45;;;15.93;;
12798;SDS011;19250;42.646;26.980;2023-04-24T04:30:08;22.20;;;16.02;;
12798;SDS011;19250;42.646;26.980;2023-04-24T04:32:37;28.15;;;19.38;;
12798;SDS011;19250;42.646;26.980;2023-04-24T04:35:05;32.35;;;25.95;;
12798;SDS011;19250;42.646;26.980;2023-04-24T04:37:32;32.22;;;27.05;;
12798;SDS011;19250;42.646;26.980;2023-04-24T04:40:00;28.38;;;24.42;;
12798;SDS011;19250;42.646;26.980;2023-04-24T04:42:31;27.23;;;21.23;;
12798;SDS011;19250;42.646;26.980;2023-04-24T04:45:00;19.08;;;14.55;;
12798;SDS011;19250;42.646;26.980;2023-04-24T04:47:27;22.57;;;14.63;;
12798;SDS011;19250;42.646;26.980;2023-04-24T04:49:59;20.70;;;14.10;;
12798;SDS011;19250;42.646;26.980;2023-04-24T04:52:26;23.63;;;14.98;;
12798;SDS011;19250;42.646;26.980;2023-04-24T04:54:53;20.73;;;15.00;;
12798;SDS011;19250;42.646;26.980;2023-04-24T04:57:21;18.13;;;14.98;;
12798;SDS011;19250;42.646;26.980;2023-04-24T04:59:48;20.83;;;14.18;;
12798;SDS011;19250;42.646;26.980;2023-04-24T05:02:15;21.92;;;13.93;;
12798;SDS011;19250;42.646;26.980;2023-04-24T05:04:43;16.60;;;11.80;;
12798;SDS011;19250;42.646;26.980;2023-04-24T05:07:11;18.13;;;12.27;;
12798;SDS011;19250;42.646;26.980;2023-04-24T05:09:39;20.65;;;14.60;;
12798;SDS011;19250;42.646;26.980;2023-04-24T05:12:06;78.85;;;53.00;;
12798;SDS011;19250;42.646;26.980;2023-04-24T05:14:33;36.90;;;25.43;;
12798;SDS011;19250;42.646;26.980;2023-04-24T05:17:01;22.17;;;17.38;;
12798;SDS011;19250;42.646;26.980;2023-04-24T05:19:28;19.15;;;13.77;;
12798;SDS011;19250;42.646;26.980;2023-04-24T05:21:58;19.60;;;14.52;;
12798;SDS011;19250;42.646;26.980;2023-04-24T05:24:29;23.48;;;13.65;;
12798;SDS011;19250;42.646;26.980;2023-04-24T05:26:57;18.20;;;12.48;;
12798;SDS011;19250;42.646;26.980;2023-04-24T05:29:25;19.35;;;13.07;;
12798;SDS011;19250;42.646;26.980;2023-04-24T05:31:52;16.45;;;11.32;;
12798;SDS011;19250;42.646;26.980;2023-04-24T05:34:20;17.15;;;13.32;;
12798;SDS011;19250;42.646;26.980;2023-04-24T05:36:47;18.73;;;14.52;;
12798;SDS011;19250;42.646;26.980;2023-04-24T05:39:15;19.38;;;16.40;;
12798;SDS011;19250;42.646;26.980;2023-04-24T05:41:45;17.77;;;14.60;;
12798;SDS011;19250;42.646;26.980;2023-04-24T05:44:12;17.73;;;12.35;;
12798;SDS011;19250;42.646;26.980;2023-04-24T05:46:39;16.92;;;13.32;;
12798;SDS011;19250;42.646;26.980;2023-04-24T05:49:07;16.73;;;14.10;;
12798;SDS011;19250;42.646;26.980;2023-04-24T05:51:34;17.13;;;12.30;;
12798;SDS011;19250;42.646;26.980;2023-04-24T05:54:01;16.67;;;11.73;;
12798;SDS011;19250;42.646;26.980;2023-04-24T05:56:29;15.45;;;12.00;;
12798;SDS011;19250;42.646;26.980;2023-04-24T05:58:57;19.60;;;13.32;;
12798;SDS011;19250;42.646;26.980;2023-04-24T06:01:25;17.50;;;12.70;;
12798;SDS011;19250;42.646;26.980;2023-04-24T06:03:52;18.25;;;11.70;;
12798;SDS011;19250;42.646;26.980;2023-04-24T06:06:19;28.40;;;14.38;;
12798;SDS011;19250;42.646;26.980;2023-04-24T06:08:47;21.27;;;12.13;;
12798;SDS011;19250;42.646;26.980;2023-04-24T06:11:14;47.85;;;14.90;;
12798;SDS011;19250;42.646;26.980;2023-04-24T06:13:41;18.00;;;12.97;;
12798;SDS011;19250;42.646;26.980;2023-04-24T06:16:10;15.93;;;12.57;;
12798;SDS011;19250;42.646;26.980;2023-04-24T06:18:37;14.43;;;12.20;;
12798;SDS011;19250;42.646;26.980;2023-04-24T06:21:05;16.13;;;12.10;;
12798;SDS011;19250;42.646;26.980;2023-04-24T06:23:32;15.88;;;12.32;;
12798;SDS011;19250;42.646;26.980;2023-04-24T06:25:59;17.85;;;12.32;;
12798;SDS011;19250;42.646;26.980;2023-04-24T06:28:26;14.07;;;11.32;;
12798;SDS011;19250;42.646;26.980;2023-04-24T06:30:54;15.27;;;11.82;;
12798;SDS011;19250;42.646;26.980;2023-04-24T06:33:22;16.65;;;12.35;;
12798;SDS011;19250;42.646;26.980;2023-04-24T06:35:50;12.35;;;7.82;;
12798;SDS011;19250;42.646;26.980;2023-04-24T06:38:17;6.78;;;4.70;;
12798;SDS011;19250;42.646;26.980;2023-04-24T06:40:44;5.80;;;4.40;;
12798;SDS011;19250;42.646;26.980;2023-04-24T06:43:12;7.38;;;5.30;;
12798;SDS011;19250;42.646;26.980;2023-04-24T06:45:40;7.68;;;4.85;;
12798;SDS011;19250;42.646;26.980;2023-04-24T06:48:09;8.00;;;5.45;;
12798;SDS011;19250;42.646;26.980;2023-04-24T06:50:38;7.23;;;4.93;;
12798;SDS011;19250;42.646;26.980;2023-04-24T06:53:05;9.93;;;5.10;;
12798;SDS011;19250;42.646;26.980;2023-04-24T06:55:33;8.75;;;5.90;;
12798;SDS011;19250;42.646;26.980;2023-04-24T06:58:02;9.93;;;5.47;;
12798;SDS011;19250;42.646;26.980;2023-04-24T07:00:29;7.97;;;4.97;;
12798;SDS011;19250;42.646;26.980;2023-04-24T07:02:56;8.50;;;5.40;;
12798;SDS011;19250;42.646;26.980;2023-04-24T07:05:23;9.05;;;5.25;;
12798;SDS011;19250;42.646;26.980;2023-04-24T07:07:52;10.40;;;6.03;;
12798;SDS011;19250;42.646;26.980;2023-04-24T07:10:20;7.33;;;4.97;;
12798;SDS011;19250;42.646;26.980;2023-04-24T07:12:48;7.32;;;5.22;;
12798;SDS011;19250;42.646;26.980;2023-04-24T07:15:15;10.85;;;5.32;;
12798;SDS011;19250;42.646;26.980;2023-04-24T07:17:43;9.37;;;5.83;;
12798;SDS011;19250;42.646;26.980;2023-04-24T07:20:10;7.13;;;5.50;;
12798;SDS011;19250;42.646;26.980;2023-04-24T07:22:39;8.20;;;4.93;;
12798;SDS011;19250;42.646;26.980;2023-04-24T07:25:08;7.22;;;5.10;;
12798;SDS011;19250;42.646;26.980;2023-04-24T07:27:36;9.38;;;5.40;;
12798;SDS011;19250;42.646;26.980;2023-04-24T07:30:03;10.52;;;5.40;;
12798;SDS011;19250;42.646;26.980;2023-04-24T07:32:32;7.55;;;5.00;;
12798;SDS011;19250;42.646;26.980;2023-04-24T07:34:59;7.03;;;4.83;;
12798;SDS011;19250;42.646;26.980;2023-04-24T07:37:26;7.88;;;4.60;;
12798;SDS011;19250;42.646;26.980;2023-04-24T07:39:55;7.75;;;4.63;;
12798;SDS011;19250;42.646;26.980;2023-04-24T07:42:24;5.80;;;4.13;;
12798;SDS011;19250;42.646;26.980;2023-04-24T07:44:51;6.90;;;4.32;;
12798;SDS011;19250;42.646;26.980;2023-04-24T07:47:18;7.17;;;4.43;;
12798;SDS011;19250;42.646;26.980;2023-04-24T07:49:46;6.55;;;4.65;;
12798;SDS011;19250;42.646;26.980;2023-04-24T07:52:13;6.50;;;4.80;;
12798;SDS011;19250;42.646;26.980;2023-04-24T07:54:40;6.47;;;4.77;;
12798;SDS011;19250;42.646;26.980;2023-04-24T07:57:08;7.88;;;4.68;;
12798;SDS011;19250;42.646;26.980;2023-04-24T07:59:36;6.60;;;4.60;;
12798;SDS011;19250;42.646;26.980;2023-04-24T08:02:04;7.68;;;4.60;;
12798;SDS011;19250;42.646;26.980;2023-04-24T08:04:31;7.80;;;5.28;;
12798;SDS011;19250;42.646;26.980;2023-04-24T08:06:58;6.65;;;5.10;;
12798;SDS011;19250;42.646;26.980;2023-04-24T08:09:26;7.65;;;4.25;;
12798;SDS011;19250;42.646;26.980;2023-04-24T08:11:53;7.57;;;5.07;;
12798;SDS011;19250;42.646;26.980;2023-04-24T08:14:20;7.53;;;5.53;;
12798;SDS011;19250;42.646;26.980;2023-04-24T08:16:49;6.35;;;4.85;;
12798;SDS011;19250;42.646;26.980;2023-04-24T08:19:16;8.48;;;5.90;;
12798;SDS011;19250;42.646;26.980;2023-04-24T08:21:43;9.07;;;6.00;;
12798;SDS011;19250;42.646;26.980;2023-04-24T08:24:11;8.00;;;5.47;;
12798;SDS011;19250;42.646;26.980;2023-04-24T08:26:38;8.73;;;5.13;;
12798;SDS011;19250;42.646;26.980;2023-04-24T08:29:06;6.45;;;4.47;;
12798;SDS011;19250;42.646;26.980;2023-04-24T08:31:33;7.45;;;5.38;;
12798;SDS011;19250;42.646;26.980;2023-04-24T08:34:02;7.87;;;6.00;;
12798;SDS011;19250;42.646;26.980;2023-04-24T08:36:29;9.82;;;6.18;;
12798;SDS011;19250;42.646;26.980;2023-04-24T08:38:58;7.53;;;4.97;;
12798;SDS011;19250;42.646;26.980;2023-04-24T08:41:25;6.60;;;5.07;;
12798;SDS011;19250;42.646;26.980;2023-04-24T08:43:54;8.07;;;5.50;;
12798;SDS011;19250;42.646;26.980;2023-04-24T08:46:23;7.73;;;5.77;;
12798;SDS011;19250;42.646;26.980;2023-04-24T08:48:51;7.53;;;5.88;;
12798;SDS011;19250;42.646;26.980;2023-04-24T08:51:20;7.47;;;5.43;;
12798;SDS011;19250;42.646;26.980;2023-04-24T08:53:49;7.63;;;5.05;;
12798;SDS011;19250;42.646;26.980;2023-04-24T08:56:18;6.50;;;5.18;;
12798;SDS011;19250;42.646;26.980;2023-04-24T08:58:48;7.65;;;5.18;;
12798;SDS011;19250;42.646;26.980;2023-04-24T09:01:17;8.15;;;5.32;;
12798;SDS011;19250;42.646;26.980;2023-04-24T09:03:45;8.73;;;5.20;;
12798;SDS011;19250;42.646;26.980;2023-04-24T09:06:15;5.18;;;4.38;;
12798;SDS011;19250;42.646;26.980;2023-04-24T09:08:45;6.45;;;4.40;;
12798;SDS011;19250;42.646;26.980;2023-04-24T09:11:15;5.53;;;4.80;;
12798;SDS011;19250;42.646;26.980;2023-04-24T09:13:43;6.25;;;4.53;;
12798;SDS011;19250;42.646;26.980;2023-04-24T09:16:11;5.72;;;4.70;;
12798;SDS011;19250;42.646;26.980;2023-04-24T09:18:39;6.88;;;4.75;;
12798;SDS011;19250;42.646;26.980;2023-04-24T09:21:09;5.53;;;4.18;;
12798;SDS011;19250;42.646;26.980;2023-04-24T09:23:36;7.97;;;4.50;;
12798;SDS011;19250;42.646;26.980;2023-04-24T09:26:05;5.43;;;4.40;;
12798;SDS011;19250;42.646;26.980;2023-04-24T09:28:36;6.15;;;4.50;;
12798;SDS011;19250;42.646;26.980;2023-04-24T09:31:05;5.60;;;4.45;;
12798;SDS011;19250;42.646;26.980;2023-04-24T09:33:34;7.15;;;4.32;;
12798;SDS011;19250;42.646;26.980;2023-04-24T09:36:02;8.23;;;5.13;;
12798;SDS011;19250;42.646;26.980;2023-04-24T09:38:31;8.45;;;5.15;;
12798;SDS011;19250;42.646;26.980;2023-04-24T09:41:00;8.55;;;5.00;;
12798;SDS011;19250;42.646;26.980;2023-04-24T09:43:30;9.60;;;5.18;;
12798;SDS011;19250;42.646;26.980;2023-04-24T09:45:58;4.83;;;4.30;;
12798;SDS011;19250;42.646;26.980;2023-04-24T09:48:31;7.67;;;4.73;;
12798;SDS011;19250;42.646;26.980;2023-04-24T09:53:59;6.40;;;4.20;;
12798;SDS011;19250;42.646;26.980;2023-04-24T09:56:26;8.93;;;4.53;;
12798;SDS011;19250;42.646;26.980;2023-04-24T09:59:05;6.88;;;4.00;;
12798;SDS011;19250;42.646;26.980;2023-04-24T10:01:33;6.78;;;4.22;;
12798;SDS011;19250;42.646;26.980;2023-04-24T10:04:01;8.93;;;4.43;;
12798;SDS011;19250;42.646;26.980;2023-04-24T10:06:33;7.85;;;4.53;;
12798;SDS011;19250;42.646;26.980;2023-04-24T10:09:01;6.50;;;4.40;;
12798;SDS011;19250;42.646;26.980;2023-04-24T10:11:30;4.47;;;3.78;;
12798;SDS011;19250;42.646;26.980;2023-04-24T10:13:57;7.10;;;4.18;;
12798;SDS011;19250;42.646;26.980;2023-04-24T10:16:26;7.45;;;4.75;;
12798;SDS011;19250;42.646;26.980;2023-04-24T10:18:54;6.50;;;4.40;;
12798;SDS011;19250;42.646;26.980;2023-04-24T10:21:22;6.80;;;4.00;;
12798;SDS011;19250;42.646;26.980;2023-04-24T10:23:49;5.93;;;4.43;;
12798;SDS011;19250;42.646;26.980;2023-04-24T10:26:17;5.67;;;4.40;;
12798;SDS011;19250;42.646;26.980;2023-04-24T10:28:46;6.70;;;4.15;;
12798;SDS011;19250;42.646;26.980;2023-04-24T10:31:14;6.85;;;4.70;;
12798;SDS011;19250;42.646;26.980;2023-04-24T10:33:43;5.28;;;4.30;;
12798;SDS011;19250;42.646;26.980;2023-04-24T10:36:13;6.70;;;4.20;;
12798;SDS011;19250;42.646;26.980;2023-04-24T10:38:42;6.95;;;4.35;;
12798;SDS011;19250;42.646;26.980;2023-04-24T10:41:13;9.30;;;3.90;;
12798;SDS011;19250;42.646;26.980;2023-04-24T10:43:41;6.97;;;4.30;;
12798;SDS011;19250;42.646;26.980;2023-04-24T10:46:09;7.63;;;4.57;;
12798;SDS011;19250;42.646;26.980;2023-04-24T10:48:43;5.70;;;4.07;;
12798;SDS011;19250;42.646;26.980;2023-04-24T10:51:13;5.70;;;3.90;;
12798;SDS011;19250;42.646;26.980;2023-04-24T10:53:41;6.65;;;4.20;;
12798;SDS011;19250;42.646;26.980;2023-04-24T10:56:08;6.23;;;4.10;;
12798;SDS011;19250;42.646;26.980;2023-04-24T10:58:37;6.88;;;4.60;;
12798;SDS011;19250;42.646;26.980;2023-04-24T11:01:05;5.10;;;4.20;;
12798;SDS011;19250;42.646;26.980;2023-04-24T11:03:33;7.00;;;4.27;;
12798;SDS011;19250;42.646;26.980;2023-04-24T11:06:03;6.40;;;3.95;;
12798;SDS011;19250;42.646;26.980;2023-04-24T11:08:36;8.40;;;4.15;;
12798;SDS011;19250;42.646;26.980;2023-04-24T11:11:08;6.13;;;4.00;;
12798;SDS011;19250;42.646;26.980;2023-04-24T11:16:32;5.20;;;3.70;;
12798;SDS011;19250;42.646;26.980;2023-04-24T11:19:03;6.28;;;4.30;;
12798;SDS011;19250;42.646;26.980;2023-04-24T11:21:38;4.68;;;3.63;;
12798;SDS011;19250;42.646;26.980;2023-04-24T11:24:26;5.57;;;3.60;;
12798;SDS011;19250;42.646;26.980;2023-04-24T11:26:56;5.57;;;4.18;;
12798;SDS011;19250;42.646;26.980;2023-04-24T11:29:42;8.27;;;3.90;;
12798;SDS011;19250;42.646;26.980;2023-04-24T11:32:15;6.30;;;3.90;;
12798;SDS011;19250;42.646;26.980;2023-04-24T11:34:50;5.82;;;4.38;;
12798;SDS011;19250;42.646;26.980;2023-04-24T11:37:19;5.25;;;3.92;;
12798;SDS011;19250;42.646;26.980;2023-04-24T11:39:50;6.95;;;4.18;;
12798;SDS011;19250;42.646;26.980;2023-04-24T11:42:18;6.20;;;3.95;;
12798;SDS011;19250;42.646;26.980;2023-04-24T11:44:46;5.68;;;4.30;;
12798;SDS011;19250;42.646;26.980;2023-04-24T11:47:15;5.70;;;4.10;;
12798;SDS011;19250;42.646;26.980;2023-04-24T11:49:43;6.47;;;4.93;;
12798;SDS011;19250;42.646;26.980;2023-04-24T11:52:10;8.70;;;4.38;;
12798;SDS011;19250;42.646;26.980;2023-04-24T11:54:47;6.32;;;4.05;;
12798;SDS011;19250;42.646;26.980;2023-04-24T11:57:16;6.00;;;4.97;;
12798;SDS011;19250;42.646;26.980;2023-04-24T11:59:43;6.68;;;5.40;;
12798;SDS011;19250;42.646;26.980;2023-04-24T12:02:19;7.47;;;5.43;;
12798;SDS011;19250;42.646;26.980;2023-04-24T12:04:47;9.77;;;5.75;;
12798;SDS011;19250;42.646;26.980;2023-04-24T12:07:14;6.72;;;5.22;;
12798;SDS011;19250;42.646;26.980;2023-04-24T12:09:42;6.50;;;5.80;;
12798;SDS011;19250;42.646;26.980;2023-04-24T12:12:12;10.65;;;5.47;;
12798;SDS011;19250;42.646;26.980;2023-04-24T12:14:44;10.10;;;5.90;;
12798;SDS011;19250;42.646;26.980;2023-04-24T12:17:15;6.22;;;4.65;;
12798;SDS011;19250;42.646;26.980;2023-04-24T12:19:46;9.13;;;5.32;;
12798;SDS011;19250;42.646;26.980;2023-04-24T12:22:14;7.57;;;5.25;;
12798;SDS011;19250;42.646;26.980;2023-04-24T12:27:32;8.67;;;5.40;;
12798;SDS011;19250;42.646;26.980;2023-04-24T12:30:00;8.13;;;5.77;;
12798;SDS011;19250;42.646;26.980;2023-04-24T12:32:28;8.10;;;5.83;;
12798;SDS011;19250;42.646;26.980;2023-04-24T12:34:55;8.50;;;6.10;;
12798;SDS011;19250;42.646;26.980;2023-04-24T12:37:24;10.35;;;6.57;;
12798;SDS011;19250;42.646;26.980;2023-04-24T12:39:58;10.30;;;6.47;;
12798;SDS011;19250;42.646;26.980;2023-04-24T12:42:27;6.57;;;4.75;;
12798;SDS011;19250;42.646;26.980;2023-04-24T12:45:00;8.80;;;4.85;;
12798;SDS011;19250;42.646;26.980;2023-04-24T12:47:30;9.45;;;4.85;;
12798;SDS011;19250;42.646;26.980;2023-04-24T12:49:58;8.50;;;4.63;;
12798;SDS011;19250;42.646;26.980;2023-04-24T12:52:26;7.60;;;4.87;;
12798;SDS011;19250;42.646;26.980;2023-04-24T12:54:54;9.00;;;4.85;;
12798;SDS011;19250;42.646;26.980;2023-04-24T12:57:23;8.07;;;7.10;;
12798;SDS011;19250;42.646;26.980;2023-04-24T12:59:53;7.97;;;5.13;;
12798;SDS011;19250;42.646;26.980;2023-04-24T13:02:22;9.00;;;5.00;;
12798;SDS011;19250;42.646;26.980;2023-04-24T13:04:50;6.95;;;5.82;;
12798;SDS011;19250;42.646;26.980;2023-04-24T13:07:17;6.53;;;4.97;;
12798;SDS011;19250;42.646;26.980;2023-04-24T13:09:44;9.45;;;6.97;;
12798;SDS011;19250;42.646;26.980;2023-04-24T13:12:12;7.65;;;5.13;;
12798;SDS011;19250;42.646;26.980;2023-04-24T13:14:40;8.75;;;5.82;;
12798;SDS011;19250;42.646;26.980;2023-04-24T13:17:08;11.90;;;6.35;;
12798;SDS011;19250;42.646;26.980;2023-04-24T13:19:39;6.45;;;5.00;;
12798;SDS011;19250;42.646;26.980;2023-04-24T13:22:08;7.13;;;4.68;;
12798;SDS011;19250;42.646;26.980;2023-04-24T13:24:36;8.75;;;6.07;;
12798;SDS011;19250;42.646;26.980;2023-04-24T13:27:06;7.15;;;4.57;;
12798;SDS011;19250;42.646;26.980;2023-04-24T13:29:33;7.13;;;4.15;;
12798;SDS011;19250;42.646;26.980;2023-04-24T13:32:00;6.77;;;4.30;;
12798;SDS011;19250;42.646;26.980;2023-04-24T13:34:28;6.15;;;4.28;;
12798;SDS011;19250;42.646;26.980;2023-04-24T13:36:57;6.28;;;4.20;;
12798;SDS011;19250;42.646;26.980;2023-04-24T13:39:25;5.38;;;4.35;;
12798;SDS011;19250;42.646;26.980;2023-04-24T13:41:52;5.18;;;4.28;;
12798;SDS011;19250;42.646;26.980;2023-04-24T13:44:20;6.45;;;4.30;;
12798;SDS011;19250;42.646;26.980;2023-04-24T13:46:50;4.40;;;3.75;;
12798;SDS011;19250;42.646;26.980;2023-04-24T13:49:19;6.07;;;4.32;;
12798;SDS011;19250;42.646;26.980;2023-04-24T13:51:47;6.43;;;4.03;;
12798;SDS011;19250;42.646;26.980;2023-04-24T13:54:16;8.20;;;4.10;;
12798;SDS011;19250;42.646;26.980;2023-04-24T13:56:43;6.63;;;3.92;;
12798;SDS011;19250;42.646;26.980;2023-04-24T13:59:11;6.50;;;3.60;;
12798;SDS011;19250;42.646;26.980;2023-04-24T14:01:39;6.70;;;3.83;;
12798;SDS011;19250;42.646;26.980;2023-04-24T14:04:06;7.13;;;4.00;;
12798;SDS011;19250;42.646;26.980;2023-04-24T14:06:34;4.55;;;3.90;;
12798;SDS011;19250;42.646;26.980;2023-04-24T14:09:01;7.25;;;3.90;;
12798;SDS011;19250;42.646;26.980;2023-04-24T14:11:31;5.47;;;4.20;;
12798;SDS011;19250;42.646;26.980;2023-04-24T14:13:58;5.80;;;4.20;;
12798;SDS011;19250;42.646;26.980;2023-04-24T14:16:26;6.38;;;3.97;;
12798;SDS011;19250;42.646;26.980;2023-04-24T14:18:55;5.83;;;3.80;;
12798;SDS011;19250;42.646;26.980;2023-04-24T14:21:22;6.18;;;3.33;;
12798;SDS011;19250;42.646;26.980;2023-04-24T14:23:50;5.68;;;3.75;;
12798;SDS011;19250;42.646;26.980;2023-04-24T14:26:17;5.30;;;3.40;;
12798;SDS011;19250;42.646;26.980;2023-04-24T14:28:46;5.30;;;3.60;;
12798;SDS011;19250;42.646;26.980;2023-04-24T14:31:13;4.40;;;3.90;;
12798;SDS011;19250;42.646;26.980;2023-04-24T14:33:40;5.80;;;3.63;;
12798;SDS011;19250;42.646;26.980;2023-04-24T14:36:07;6.13;;;3.67;;
12798;SDS011;19250;42.646;26.980;2023-04-24T14:38:35;7.32;;;3.90;;